Time;durP1;ratioP1;P1;durP2;ratioP2;P2;SDS_P1;SDS_P2;PMS_P1;PMS_P2;Temp;Humidity;BMP_temperature;BMP_pressure;BME280_temperature;BME280_humidity;BME280_pressure;Samples;Min_cycle;Max_cycle;Signal;HPM_P1;HPM_P2
2022/01/28 00:00:05;;;;;;;;;;;;;;;-144.99;88.19;52721.22;5029262;28;19932;-58
2022/01/28 00:02:47;;;;;;;;;;;;;;;-144.99;88.17;52717.16;5029339;28;19925;-59
2022/01/28 00:05:17;;;;;;;;;;;;;;;-144.99;88.71;52704.94;5028508;28;20336;-60
2022/01/28 00:07:44;;;;;;;;;;;;;;;-144.99;89.10;52731.44;5028950;28;19929;-60
2022/01/28 00:10:10;;;;;;;;;;;;;;;-144.99;86.69;52717.16;5028806;28;20342;-61
2022/01/28 00:12:45;;;;;;;;;;;;;;;-144.99;85.38;52743.66;5029357;28;20008;-59
2022/01/28 00:15:20;;;;;;;;;;;;;;;-144.99;84.56;52702.88;5028433;28;20277;-59
2022/01/28 00:18:05;;;;;;;;;;;;;;;-144.99;83.39;52700.84;5029206;28;20328;-59
2022/01/28 00:20:59;;;;;;;;;;;;;;;-144.99;81.92;52717.16;5028315;28;19933;-60
2022/01/28 00:37:10;;;;;;;;;;;;;;;-144.99;83.74;52737.53;5022599;28;19936;-60
2022/01/28 00:39:37;;;;;;;;;;;;;;;-144.99;84.67;52743.66;5028474;28;20044;-59
2022/01/28 00:42:04;;;;;;;;;;;;;;;-144.99;86.24;52729.38;5028836;28;19925;-59
2022/01/28 00:44:33;;;;;;;;;;;;;;;-144.99;86.92;52698.81;5028255;28;19929;-59
2022/01/28 00:46:59;;;;;;;;;;;;;;;-144.99;88.00;52700.84;5028733;28;19929;-59
2022/01/28 00:49:27;;;;;;;;;;;;;;;-144.99;87.29;52729.38;5028467;28;20393;-60
2022/01/28 00:51:54;;;;;;;;;;;;;;;-144.99;87.13;52733.47;5028047;28;19925;-58
2022/01/28 00:54:20;;;;;;;;;;;;;;;-144.99;87.11;52733.47;5029032;28;19969;-58
2022/01/28 00:56:47;;;;;;;;;;;;;;;-144.99;86.88;52747.72;5028941;28;19926;-59
2022/01/28 00:59:13;;;;;;;;;;;;;;;-144.99;86.69;52717.16;5028538;28;19936;-57
2022/01/28 01:01:40;;;;;;;;;;;;;;;-144.99;86.85;52717.16;5028104;28;20382;-58
2022/01/28 01:04:06;;;;;;;;;;;;;;;-144.99;86.70;52721.22;5028599;28;19925;-58
2022/01/28 01:06:34;;;;;;;;;;;;;;;-144.99;87.05;52702.88;5028017;28;19929;-58
2022/01/28 01:09:01;;;;;;;;;;;;;;;-144.99;87.14;52721.22;5033763;28;19925;-58
2022/01/28 01:11:28;;;;;;;;;;;;;;;-144.99;86.65;52741.63;5031433;28;19925;-59
2022/01/28 01:13:55;;;;;;;;;;;;;;;-144.99;86.96;52704.94;5031058;28;19925;-58
2022/01/28 01:16:28;;;;;;;;;;;;;;;-144.99;86.84;52719.19;5031211;28;19925;-59
2022/01/28 01:19:04;;;;;;;;;;;;;;;-144.99;88.18;52721.22;5032066;28;20282;-58
2022/01/28 01:21:37;;;;;;;;;;;;;;;-144.99;87.71;52711.03;5031010;28;19925;-59
2022/01/28 01:24:07;;;;;;;;;;;;;;;-144.99;87.79;52725.31;5031676;28;20016;-59
2022/01/28 01:26:36;;;;;;;;;;;;;;;-144.99;88.14;52692.69;5031443;28;19933;-58
2022/01/28 01:29:05;;;;;;;;;;;;;;;-144.99;87.40;52684.53;5031517;28;19956;-58
2022/01/28 01:31:31;;;;;;;;;;;;;;;-144.99;86.81;52704.94;5031433;28;19948;-59
2022/01/28 01:34:05;;;;;;;;;;;;;;;-144.99;85.96;52733.47;5031208;28;19925;-58
2022/01/28 01:36:31;;;;;;;;;;;;;;;-144.99;85.66;52696.78;5031065;28;19991;-58
2022/01/28 01:38:58;;;;;;;;;;;;;;;-144.99;85.95;52721.22;5031158;28;19925;-58
2022/01/28 01:41:32;;;;;;;;;;;;;;;-144.99;85.75;52700.84;5031575;28;19929;-59
2022/01/28 01:44:02;;;;;;;;;;;;;;;-144.99;86.57;52762.00;5030971;28;19925;-59
2022/01/28 01:46:41;;;;;;;;;;;;;;;-144.99;86.65;52713.09;5030893;28;20390;-58
2022/01/28 01:52:06;;;;;;;;;;;;;;;-144.99;84.41;52676.38;5004043;28;19925;-59
2022/01/28 01:54:35;;;;;;;;;;;;;;;-144.99;83.54;52723.28;5030987;28;19944;-60
2022/01/28 01:57:03;;;;;;;;;;;;;;;-144.99;82.25;52684.53;5030908;28;20420;-58
2022/01/28 01:59:29;;;;;;;;;;;;;;;-144.99;82.57;52717.16;5030655;28;19929;-58
2022/01/28 02:01:56;;;;;;;;;;;;;;;-144.99;82.41;52713.09;5030830;28;19925;-60
2022/01/28 02:04:23;;;;;;;;;;;;;;;-144.99;81.50;52741.63;5030669;28;20008;-58
2022/01/28 02:06:50;;;;;;;;;;;;;;;-144.99;80.53;52741.63;5030207;28;19983;-59
2022/01/28 02:09:16;;;;;;;;;;;;;;;-144.99;79.14;52723.28;5030406;28;19925;-57
2022/01/28 02:11:43;;;;;;;;;;;;;;;-144.99;78.25;52713.09;5030544;28;19925;-59
2022/01/28 02:14:11;;;;;;;;;;;;;;;-144.99;78.56;52688.63;5024980;28;20382;-59
2022/01/28 02:16:37;;;;;;;;;;;;;;;-144.99;79.21;52696.78;5030166;28;19932;-58
2022/01/28 02:19:04;;;;;;;;;;;;;;;-144.99;78.92;52721.22;5030388;28;19925;-58
2022/01/28 02:21:34;;;;;;;;;;;;;;;-144.99;79.02;52698.81;5029827;28;19925;-58
2022/01/28 02:24:05;;;;;;;;;;;;;;;-144.99;78.56;52709.00;5030222;28;19925;-59
2022/01/28 02:26:31;;;;;;;;;;;;;;;-144.99;79.44;52713.09;5047904;22;19932;-59
2022/01/28 02:29:06;;;;;;;;;;;;;;;-144.99;80.22;52704.94;5049342;28;19925;-58
2022/01/28 02:31:33;;;;;;;;;;;;;;;-144.99;79.02;52733.47;5038672;28;20238;-60
2022/01/28 02:34:00;;;;;;;;;;;;;;;-144.99;78.84;52721.22;5030804;28;19935;-58
2022/01/28 02:36:27;;;;;;;;;;;;;;;-144.99;78.60;52713.09;5026308;28;20020;-61
2022/01/28 02:38:55;;;;;;;;;;;;;;;-144.99;77.85;52692.69;5037835;28;19925;-59
2022/01/28 02:41:23;;;;;;;;;;;;;;;-144.99;77.88;52717.16;5037257;28;19925;-60
2022/01/28 02:44:04;;;;;;;;;;;;;;;-144.99;78.17;52696.78;5037877;28;19936;-58
2022/01/28 02:46:32;;;;;;;;;;;;;;;-144.99;78.63;52700.84;5028579;28;20326;-59
2022/01/28 02:49:04;;;;;;;;;;;;;;;-144.99;79.11;52692.69;5028952;28;19925;-60
2022/01/28 02:51:31;;;;;;;;;;;;;;;-144.99;80.50;52668.22;5028484;28;19960;-59
2022/01/28 02:54:00;;;;;;;;;;;;;;;-144.99;80.65;52719.19;5029500;28;19925;-61
2022/01/28 02:56:36;;;;;;;;;;;;;;;-144.99;80.70;52696.78;5029152;28;19957;-60
2022/01/28 02:59:02;;;;;;;;;;;;;;;-144.99;81.10;52713.09;5029084;28;20350;-61
2022/01/28 03:01:29;;;;;;;;;;;;;;;-144.99;80.66;52709.00;5028532;28;20170;-59
2022/01/28 03:03:56;;;;;;;;;;;;;;;-144.99;80.96;52713.09;5029199;28;19925;-61
2022/01/28 03:06:23;;;;;;;;;;;;;;;-144.99;81.08;52717.16;5028395;28;19931;-60
2022/01/28 03:08:56;;;;;;;;;;;;;;;-144.99;79.90;52684.53;5035034;28;19929;-60
2022/01/28 03:11:44;;;;;;;;;;;;;;;-144.99;79.82;52704.94;5042517;28;20334;-61
2022/01/28 03:14:34;;;;;;;;;;;;;;;-144.99;79.70;52704.94;5019919;28;19963;-60
2022/01/28 03:17:09;;;;;;;;;;;;;;;-144.99;79.25;52704.94;5028876;28;19969;-59
2022/01/28 03:19:45;;;;;;;;;;;;;;;-144.99;79.29;52729.38;5028228;28;20056;-61
2022/01/28 03:22:12;;;;;;;;;;;;;;;-144.99;80.73;52692.69;5029484;28;20326;-61
2022/01/28 03:24:40;;;;;;;;;;;;;;;-144.99;81.62;52721.22;5028807;28;19924;-59
2022/01/28 03:27:14;;;;;;;;;;;;;;;-144.99;81.14;52709.00;5029125;28;20032;-59
2022/01/28 03:29:40;;;;;;;;;;;;;;;-144.99;81.79;52688.63;5028388;28;19929;-61
2022/01/28 03:32:07;;;;;;;;;;;;;;;-144.99;81.03;52713.09;5028313;28;19950;-60
2022/01/28 03:34:33;;;;;;;;;;;;;;;-144.99;80.20;52731.44;5028411;28;19925;-60
2022/01/28 03:37:00;;;;;;;;;;;;;;;-144.99;80.55;52713.09;5028503;28;19925;-58
2022/01/28 03:39:26;;;;;;;;;;;;;;;-144.99;79.29;52731.44;5028726;28;20438;-61
2022/01/28 03:41:52;;;;;;;;;;;;;;;-144.99;80.47;52749.78;5029222;28;19925;-61
2022/01/28 03:44:20;;;;;;;;;;;;;;;-144.99;79.69;52745.69;5028264;28;19929;-59
2022/01/28 03:46:46;;;;;;;;;;;;;;;-144.99;80.18;52739.56;5027632;28;19925;-63
2022/01/28 03:49:13;;;;;;;;;;;;;;;-144.99;79.51;52745.69;5032168;28;19940;-59
2022/01/28 03:51:39;;;;;;;;;;;;;;;-144.99;78.96;52719.19;5035117;28;19932;-59
2022/01/28 03:54:05;;;;;;;;;;;;;;;-144.99;78.08;52733.47;5028032;28;19929;-59
2022/01/28 03:56:32;;;;;;;;;;;;;;;-144.99;77.95;52713.09;5029018;28;20424;-61
2022/01/28 03:58:59;;;;;;;;;;;;;;;-144.99;77.96;52717.16;5028683;28;19925;-60
2022/01/28 04:01:31;;;;;;;;;;;;;;;-144.99;78.55;52731.44;5027804;28;19972;-60
2022/01/28 04:04:48;;;;;;;;;;;;;;;-144.99;78.36;52717.16;5028318;28;20443;-60
2022/01/28 04:12:34;;;;;;;;;;;;;;;-144.99;81.16;52786.47;5016191;28;20506;-61
2022/01/28 04:15:07;;;;;;;;;;;;;;;-144.99;81.35;52721.22;5027861;28;19929;-60
2022/01/28 04:17:35;;;;;;;;;;;;;;;-144.99;80.79;52725.31;5028632;28;19925;-60
2022/01/28 04:20:02;;;;;;;;;;;;;;;-144.99;80.31;52762.00;5028083;28;19929;-59
2022/01/28 04:22:28;;;;;;;;;;;;;;;-144.99;79.51;52704.94;5031591;28;20365;-61
2022/01/28 04:24:55;;;;;;;;;;;;;;;-144.99;78.80;52713.09;5028316;28;20005;-60
2022/01/28 04:27:21;;;;;;;;;;;;;;;-144.99;78.43;52704.94;5027914;28;19929;-60
2022/01/28 04:29:47;;;;;;;;;;;;;;;-144.99;78.03;52757.94;5027922;28;19937;-61
2022/01/28 04:32:14;;;;;;;;;;;;;;;-144.99;77.44;52733.47;5027912;28;19926;-60
2022/01/28 04:34:41;;;;;;;;;;;;;;;-144.99;77.28;52700.84;5027143;28;19931;-60
2022/01/28 04:37:17;;;;;;;;;;;;;;;-144.99;76.15;52749.78;5025270;28;20281;-60
2022/01/28 04:39:49;;;;;;;;;;;;;;;-144.99;76.55;52745.69;5037237;28;20035;-60
2022/01/28 04:42:29;;;;;;;;;;;;;;;-144.99;75.99;52731.44;5022142;28;20215;-60
2022/01/28 04:45:03;;;;;;;;;;;;;;;-144.99;75.77;52745.69;5030994;28;20395;-59
2022/01/28 04:47:36;;;;;;;;;;;;;;;-144.99;74.87;52745.69;5031803;28;20027;-59
2022/01/28 04:50:12;;;;;;;;;;;;;;;-144.99;74.82;52717.16;5031731;28;19971;-59
2022/01/28 04:53:06;;;;;;;;;;;;;;;-144.99;74.20;52694.72;5031623;28;20017;-58
2022/01/28 04:55:54;;;;;;;;;;;;;;;-144.99;74.09;52741.63;5031522;28;19931;-59
2022/01/28 04:58:34;;;;;;;;;;;;;;;-144.99;73.51;52717.16;5031300;28;19929;-59
2022/01/28 05:01:20;;;;;;;;;;;;;;;-144.99;72.99;52713.09;5031049;28;20357;-58
2022/01/28 05:04:05;;;;;;;;;;;;;;;-144.99;72.37;52719.19;5030907;28;19925;-60
2022/01/28 05:06:55;;;;;;;;;;;;;;;-144.99;72.21;52680.47;5030893;28;19956;-62
2022/01/28 05:09:52;;;;;;;;;;;;;;;-144.99;72.11;52727.34;5029835;28;20393;-61
2022/01/28 05:13:01;;;;;;;;;;;;;;;-144.99;70.88;52694.72;5038267;28;20343;-60
2022/01/28 05:26:34;;;;;;;;;;;;;;;-144.99;68.87;52696.78;5031007;28;19935;-60
2022/01/28 05:29:00;;;;;;;;;;;;;;;-144.99;68.11;52719.19;5031503;28;19924;-60
2022/01/28 05:31:26;;;;;;;;;;;;;;;-144.99;68.35;52729.38;5030827;28;19929;-59
2022/01/28 05:33:53;;;;;;;;;;;;;;;-144.99;67.88;52696.78;5030488;28;19926;-59
2022/01/28 05:36:19;;;;;;;;;;;;;;;-144.99;68.26;52739.56;5030692;28;19925;-59
2022/01/28 05:38:47;;;;;;;;;;;;;;;-144.99;68.31;52709.00;5030919;28;19933;-62
2022/01/28 05:41:13;;;;;;;;;;;;;;;-144.99;68.09;52668.22;5030303;28;19952;-61
2022/01/28 05:43:40;;;;;;;;;;;;;;;-144.99;67.78;52733.47;5030567;28;19929;-59
2022/01/28 05:46:07;;;;;;;;;;;;;;;-144.99;67.79;52725.31;5030075;28;19925;-60
2022/01/28 05:48:34;;;;;;;;;;;;;;;-144.99;67.47;52717.16;5035056;28;20147;-60
2022/01/28 05:51:00;;;;;;;;;;;;;;;-144.99;66.88;52727.34;5036259;28;19933;-60
2022/01/28 05:53:27;;;;;;;;;;;;;;;-144.99;66.86;52713.09;5029733;28;19935;-58
2022/01/28 05:55:54;;;;;;;;;;;;;;;-144.99;66.35;52709.00;5030716;28;19925;-61
2022/01/28 05:58:21;;;;;;;;;;;;;;;-144.99;65.53;52711.03;5031269;28;19925;-61
2022/01/28 06:00:47;;;;;;;;;;;;;;;-144.99;65.15;52704.94;5030190;28;19932;-59
2022/01/28 06:03:13;;;;;;;;;;;;;;;-144.99;64.23;52753.84;5030597;28;19944;-59
2022/01/28 06:05:40;;;;;;;;;;;;;;;-144.99;63.39;52702.88;5029863;28;19925;-60
2022/01/28 06:08:06;;;;;;;;;;;;;;;-144.99;62.88;52704.94;5034096;28;19925;-61
2022/01/28 06:10:32;;;;;;;;;;;;;;;-144.99;61.11;52668.22;5040009;28;19956;-60
2022/01/28 06:13:00;;;;;;;;;;;;;;;-144.99;60.90;52729.38;5030384;28;20000;-60
2022/01/28 06:15:26;;;;;;;;;;;;;;;-144.99;61.30;52709.00;5029638;28;20028;-59
2022/01/28 06:17:53;;;;;;;;;;;;;;;-144.99;61.78;52717.16;5030288;28;20004;-59
2022/01/28 06:20:19;;;;;;;;;;;;;;;-144.99;59.85;52725.31;5029794;28;19929;-60
2022/01/28 06:22:46;;;;;;;;;;;;;;;-144.99;59.38;52717.16;5033346;28;19948;-61
2022/01/28 06:25:13;;;;;;;;;;;;;;;-144.99;59.57;52723.28;5029964;28;19975;-60
2022/01/28 06:27:40;;;;;;;;;;;;;;;-144.99;59.83;52721.22;5030247;28;19979;-60
2022/01/28 06:30:08;;;;;;;;;;;;;;;-144.99;59.54;52709.00;5029497;28;19925;-60
2022/01/28 06:32:35;;;;;;;;;;;;;;;-144.99;60.01;52733.47;5029830;28;19988;-60
2022/01/28 06:35:07;;;;;;;;;;;;;;;-144.99;59.98;52753.84;5029719;28;20099;-57
2022/01/28 06:37:33;;;;;;;;;;;;;;;-144.99;60.11;52727.34;5029829;28;19925;-59
2022/01/28 06:40:00;;;;;;;;;;;;;;;-144.99;60.05;52692.69;5040625;28;19937;-60
2022/01/28 06:42:26;;;;;;;;;;;;;;;-144.99;59.94;52692.69;5035554;28;19929;-59
2022/01/28 06:44:53;;;;;;;;;;;;;;;-144.99;59.91;52704.94;5029086;28;19945;-59
2022/01/28 06:47:20;;;;;;;;;;;;;;;-144.99;60.40;52762.00;5029559;28;19925;-59
2022/01/28 06:49:47;;;;;;;;;;;;;;;-144.99;60.86;52709.00;5029515;28;20269;-58
2022/01/28 06:52:13;;;;;;;;;;;;;;;-144.99;60.95;52753.84;5029885;28;19925;-58
2022/01/28 06:54:39;;;;;;;;;;;;;;;-144.99;61.72;52717.16;5029350;28;19925;-62
2022/01/28 06:57:06;;;;;;;;;;;;;;;-144.99;61.43;52753.84;5029349;28;20312;-60
2022/01/28 06:59:32;;;;;;;;;;;;;;;-144.99;61.33;52717.16;5029037;28;19940;-59
2022/01/28 07:01:58;;;;;;;;;;;;;;;-144.99;62.44;52749.78;5029425;28;19952;-59
2022/01/28 07:04:26;;;;;;;;;;;;;;;-144.99;63.53;52762.00;5029050;28;19959;-60
2022/01/28 07:06:53;;;;;;;;;;;;;;;-144.99;63.51;52766.09;5028563;28;19929;-59
2022/01/28 07:09:19;;;;;;;;;;;;;;;-144.99;64.08;52717.16;5039744;28;20020;-60
2022/01/28 07:11:45;;;;;;;;;;;;;;;-144.99;64.89;52706.97;5032104;28;19956;-60
2022/01/28 07:14:12;;;;;;;;;;;;;;;-144.99;64.76;52733.47;5029581;28;19936;-61
2022/01/28 07:16:38;;;;;;;;;;;;;;;-144.99;65.20;52729.38;5029210;28;20263;-59
2022/01/28 07:19:05;;;;;;;;;;;;;;;-144.99;65.67;52725.31;5029003;28;19924;-59
2022/01/28 07:21:32;;;;;;;;;;;;;;;-144.99;66.25;52745.69;5032130;28;19932;-59
2022/01/28 07:23:59;;;;;;;;;;;;;;;-144.99;66.48;52753.84;5029186;28;19925;-59
2022/01/28 07:26:25;;;;;;;;;;;;;;;-144.99;66.95;52766.09;5028152;28;20408;-59
2022/01/28 07:28:52;;;;;;;;;;;;;;;-144.99;66.96;52727.34;5029048;28;19950;-59
2022/01/28 07:31:19;;;;;;;;;;;;;;;-144.99;67.48;52721.22;5028749;28;19932;-59
2022/01/28 07:33:46;;;;;;;;;;;;;;;-144.99;67.80;52729.38;5028841;28;19948;-60
2022/01/28 07:36:12;;;;;;;;;;;;;;;-144.99;68.38;52751.81;5028238;28;20020;-60
2022/01/28 07:38:40;;;;;;;;;;;;;;;-144.99;68.78;52731.44;5029189;28;19925;-62
2022/01/28 07:41:06;;;;;;;;;;;;;;;-144.99;69.13;52717.16;5028682;28;19948;-59
2022/01/28 07:43:34;;;;;;;;;;;;;;;-144.99;69.53;52725.31;5029126;28;19936;-60
2022/01/28 07:46:01;;;;;;;;;;;;;;;-144.99;69.71;52753.84;5028016;28;20032;-59
2022/01/28 07:48:27;;;;;;;;;;;;;;;-144.99;69.89;52757.94;5026657;28;19925;-59
2022/01/28 07:50:53;;;;;;;;;;;;;;;-144.99;69.82;52706.97;5033360;28;19926;-61
2022/01/28 07:53:20;;;;;;;;;;;;;;;-144.99;69.98;52713.09;5028882;28;19953;-60
2022/01/28 07:55:47;;;;;;;;;;;;;;;-144.99;70.06;52747.72;5028773;28;19933;-60
2022/01/28 07:58:14;;;;;;;;;;;;;;;-144.99;69.78;52721.22;5029309;28;19925;-59
2022/01/28 08:00:42;;;;;;;;;;;;;;;-144.99;69.40;52717.16;5029089;28;19925;-60
2022/01/28 08:03:08;;;;;;;;;;;;;;;-144.99;68.99;52737.53;5028661;28;20459;-60
2022/01/28 08:05:35;;;;;;;;;;;;;;;-144.99;68.63;52706.97;5028050;28;19936;-59
2022/01/28 08:08:04;;;;;;;;;;;;;;;-144.99;68.28;52704.94;5030805;28;20390;-59
2022/01/28 08:10:31;;;;;;;;;;;;;;;-144.99;67.66;52747.72;5039216;28;19932;-59
2022/01/28 08:13:00;;;;;;;;;;;;;;;-144.99;67.23;52709.00;5028597;28;20028;-61
2022/01/28 08:15:27;;;;;;;;;;;;;;;-144.99;67.53;52713.09;5028230;28;19937;-60
2022/01/28 08:17:53;;;;;;;;;;;;;;;-144.99;67.07;52721.22;5031503;28;20274;-59
2022/01/28 08:20:19;;;;;;;;;;;;;;;-144.99;66.96;52700.84;5031975;28;19929;-60
2022/01/28 08:22:47;;;;;;;;;;;;;;;-144.99;66.27;52741.63;5035971;28;19925;-61
2022/01/28 08:25:13;;;;;;;;;;;;;;;-144.99;65.98;52709.00;5032422;28;20404;-60
2022/01/28 08:27:41;;;;;;;;;;;;;;;-144.99;65.52;52680.47;5050383;22;20207;-60
2022/01/28 08:30:10;;;;;;;;;;;;;;;-144.99;64.90;52684.53;5028350;28;19925;-58
2022/01/28 08:32:36;;;;;;;;;;;;;;;-144.99;64.51;52719.19;5033107;28;19929;-58
2022/01/28 08:35:03;;;;;;;;;;;;;;;-144.99;64.06;52694.72;5033114;28;19936;-59
2022/01/28 08:37:29;;;;;;;;;;;;;;;-144.99;63.51;52680.47;5039128;28;19929;-59
2022/01/28 08:39:55;;;;;;;;;;;;;;;-144.99;63.01;52704.94;5024694;28;19935;-58
2022/01/28 08:57:43;;;;;;;;;;;;;;;-144.99;60.31;52668.22;5019389;28;19963;-60
2022/01/28 09:00:10;;;;;;;;;;;;;;;-144.99;59.63;52619.31;5032456;28;19932;-59
2022/01/28 09:02:36;;;;;;;;;;;;;;;-144.99;58.54;52664.16;5032690;28;20309;-60
2022/01/28 09:05:02;;;;;;;;;;;;;;;-144.99;58.46;52668.22;5031896;28;20405;-61
2022/01/28 09:07:29;;;;;;;;;;;;;;;-144.99;58.09;52680.47;5033205;28;19925;-60
2022/01/28 09:10:02;;;;;;;;;;;;;;;-144.99;57.82;52704.94;5033245;28;19936;-60
2022/01/28 09:12:38;;;;;;;;;;;;;;;-144.99;57.15;52664.16;5027875;28;19960;-59
2022/01/28 09:15:06;;;;;;;;;;;;;;;-144.99;56.58;52639.69;5028252;28;19925;-59
2022/01/28 09:17:33;;;;;;;;;;;;;;;-144.99;56.13;52664.16;5033424;28;19925;-59
2022/01/28 09:19:59;;;;;;;;;;;;;;;-144.99;56.02;52647.84;5032416;28;19929;-60
2022/01/28 09:22:26;;;;;;;;;;;;;;;-144.99;55.48;52635.63;5032632;28;19932;-60
2022/01/28 09:24:53;;;;;;;;;;;;;;;-144.99;55.20;52676.38;5032831;28;19929;-59
2022/01/28 09:27:19;;;;;;;;;;;;;;;-144.99;54.51;52651.94;5033367;28;19929;-60
2022/01/28 09:29:45;;;;;;;;;;;;;;;-144.99;53.84;52619.31;5031931;28;19932;-61
2022/01/28 09:32:13;;;;;;;;;;;;;;;-144.99;53.55;52619.31;5032817;28;19932;-60
2022/01/28 09:34:39;;;;;;;;;;;;;;;-144.99;53.64;52664.16;5031916;28;19925;-62
2022/01/28 09:37:06;;;;;;;;;;;;;;;-144.99;52.90;52647.84;5032331;28;19925;-60
2022/01/28 09:39:33;;;;;;;;;;;;;;;-144.99;52.07;52645.81;5032764;28;19944;-59
2022/01/28 09:57:47;;;;;;;;;;;;;;;-144.99;47.96;52582.63;5028471;28;19982;-61
2022/01/28 10:00:16;;;;;;;;;;;;;;;-144.99;46.81;52594.84;5031217;28;20060;-60
2022/01/28 10:02:52;;;;;;;;;;;;;;;-144.99;46.04;52570.38;5031531;28;19933;-61
2022/01/28 10:05:19;;;;;;;;;;;;;;;-144.99;45.67;52566.31;5031058;28;19925;-62
2022/01/28 10:07:59;;;;;;;;;;;;;;;-144.99;45.55;52580.59;5031336;28;19932;-60
2022/01/28 10:10:25;;;;;;;;;;;;;;;-144.99;44.13;52513.31;5023177;28;20309;-61
2022/01/28 10:13:07;;;;;;;;;;;;;;;-144.99;43.80;52517.41;5031439;28;20413;-61
2022/01/28 10:15:34;;;;;;;;;;;;;;;-144.99;43.29;52492.94;5030752;28;19947;-61
2022/01/28 10:18:01;;;;;;;;;;;;;;;-144.99;42.86;52488.84;5030938;28;19943;-62
2022/01/28 10:20:28;;;;;;;;;;;;;;;-144.99;41.16;52456.25;5030511;28;19929;-62
2022/01/28 10:22:57;;;;;;;;;;;;;;;-144.99;40.89;52484.78;5031203;28;19925;-61
2022/01/28 10:25:25;;;;;;;;;;;;;;;-144.99;40.00;52452.16;5031282;28;19953;-61
2022/01/28 10:27:58;;;;;;;;;;;;;;;-144.99;40.03;52505.16;5030879;28;19974;-61
2022/01/28 10:30:25;;;;;;;;;;;;;;;-144.99;39.69;52452.16;5031000;28;19940;-62
2022/01/28 10:33:06;;;;;;;;;;;;;;;-144.99;39.50;52444.03;5031409;28;19937;-61
2022/01/28 10:35:34;;;;;;;;;;;;;;;-144.99;38.31;52382.88;5030291;28;19925;-62
2022/01/28 10:38:02;;;;;;;;;;;;;;;-144.99;37.40;52382.88;5030937;28;19925;-62
2022/01/28 10:40:28;;;;;;;;;;;;;;;-144.99;36.41;52358.41;5021467;28;20367;-61
2022/01/28 10:42:55;;;;;;;;;;;;;;;-144.99;36.03;52342.09;5029259;28;19933;-62
2022/01/28 10:45:22;;;;;;;;;;;;;;;-144.99;35.44;52354.34;5029683;28;19925;-61
2022/01/28 10:47:49;;;;;;;;;;;;;;;-144.99;35.64;52350.25;5030536;28;19931;-62
2022/01/28 10:50:17;;;;;;;;;;;;;;;-144.99;35.13;52305.41;5030125;28;19929;-61
2022/01/28 10:52:45;;;;;;;;;;;;;;;-144.99;34.46;52295.22;5030356;28;20425;-60
2022/01/28 10:55:16;;;;;;;;;;;;;;;-144.99;33.97;52313.56;5029656;28;20099;-63
2022/01/28 10:57:55;;;;;;;;;;;;;;;-144.99;33.62;52311.53;5030760;28;20033;-61
2022/01/28 11:06:26;;;;;;;;;;;;;;;-144.99;33.09;52297.25;5030278;28;20285;-61
2022/01/28 11:08:54;;;;;;;;;;;;;;;-144.99;33.21;52291.16;5034023;28;20372;-62
2022/01/28 11:11:21;;;;;;;;;;;;;;;-144.99;32.70;52246.31;5028562;28;19929;-64
2022/01/28 11:13:47;;;;;;;;;;;;;;;-144.99;32.22;52244.28;5030223;28;19932;-63
2022/01/28 11:16:14;;;;;;;;;;;;;;;-144.99;31.72;52256.50;5029648;28;19936;-63
2022/01/28 11:18:40;;;;;;;;;;;;;;;-144.99;32.00;52309.50;5030349;28;20273;-62
2022/01/28 11:21:13;;;;;;;;;;;;;;;-144.99;32.35;52262.63;5029863;28;20274;-64
2022/01/28 11:23:49;;;;;;;;;;;;;;;-144.99;31.74;52244.28;5029600;28;19925;-62
2022/01/28 11:26:18;;;;;;;;;;;;;;;-144.99;31.68;52232.03;5030075;28;19925;-61
2022/01/28 11:28:46;;;;;;;;;;;;;;;-144.99;31.29;52262.63;5029890;28;19929;-62
2022/01/28 11:31:12;;;;;;;;;;;;;;;-144.99;31.19;52250.38;5029153;28;20267;-62
2022/01/28 11:33:43;;;;;;;;;;;;;;;-144.99;30.90;52195.34;5029725;28;19937;-62
2022/01/28 11:36:09;;;;;;;;;;;;;;;-144.99;30.58;52232.03;5029235;28;20327;-62
2022/01/28 11:38:43;;;;;;;;;;;;;;;-144.99;30.25;52248.34;5029689;28;19925;-63
2022/01/28 11:41:11;;;;;;;;;;;;;;;-144.99;30.55;52252.44;5029632;28;19932;-62
2022/01/28 11:43:46;;;;;;;;;;;;;;;-144.99;31.08;52248.34;5030252;28;20011;-64
2022/01/28 11:46:18;;;;;;;;;;;;;;;-144.99;30.28;52223.88;5030386;28;19964;-62
2022/01/28 11:48:55;;;;;;;;;;;;;;;-144.99;30.39;52240.19;5030746;28;20382;-62
2022/01/28 11:51:22;;;;;;;;;;;;;;;-144.99;29.79;52207.59;5018778;28;20361;-65
2022/01/28 12:09:04;;;;;;;;;;;;;;;-144.99;29.56;52223.88;5029546;28;19924;-62
2022/01/28 12:11:43;;;;;;;;;;;;;;;-144.99;29.56;52203.50;5026866;28;19926;-64
2022/01/28 12:14:12;;;;;;;;;;;;;;;-144.99;29.82;52223.88;5029444;28;20040;-63
2022/01/28 12:16:42;;;;;;;;;;;;;;;-144.99;29.83;52223.88;5029078;28;20025;-63
2022/01/28 12:19:15;;;;;;;;;;;;;;;-144.99;30.09;52236.13;5029369;28;19979;-63
2022/01/28 12:22:02;;;;;;;;;;;;;;;-144.99;30.53;52203.50;5029156;28;19948;-62
2022/01/28 12:24:33;;;;;;;;;;;;;;;-144.99;30.61;52238.16;5029211;28;19932;-63
2022/01/28 12:27:01;;;;;;;;;;;;;;;-144.99;30.70;52244.28;5029988;28;19925;-61
2022/01/28 12:29:28;;;;;;;;;;;;;;;-144.99;30.49;52232.03;5029190;28;19932;-62
2022/01/28 12:31:56;;;;;;;;;;;;;;;-144.99;30.33;52268.72;5029188;28;19925;-61
2022/01/28 12:34:23;;;;;;;;;;;;;;;-144.99;30.39;52244.28;5029079;28;19925;-63
2022/01/28 12:36:49;;;;;;;;;;;;;;;-144.99;30.66;52276.88;5033692;28;19931;-62
2022/01/28 12:39:24;;;;;;;;;;;;;;;-144.99;30.64;52262.63;5020557;28;19931;-61
2022/01/28 12:41:56;;;;;;;;;;;;;;;-144.99;30.41;52270.78;5029261;28;20334;-61
2022/01/28 12:44:23;;;;;;;;;;;;;;;-144.99;30.60;52268.72;5029610;28;19947;-63
2022/01/28 12:46:58;;;;;;;163.97;80.73;;;;;;;-144.99;30.70;52244.28;5027652;28;24472;-62
2022/01/28 12:49:27;;;;;;;159.67;73.33;;;;;;;-144.99;30.93;52268.72;5028607;28;20598;-61
2022/01/28 12:51:56;;;;;;;158.57;75.10;;;;;;;-144.99;30.98;52315.59;5028162;28;20219;-64
2022/01/28 12:54:34;;;;;;;153.53;74.20;;;;;;;-144.99;30.98;52305.41;5028507;28;20264;-61
2022/01/28 12:57:02;;;;;;;147.23;73.90;;;;;;;-144.99;31.19;52297.25;5028420;28;20233;-61
2022/01/28 12:59:29;;;;;;;;;;;;;;;-144.99;31.40;52293.19;5028415;28;20261;-61
2022/01/28 13:01:56;;;;;;;199.38;81.25;;;;;;;-144.99;32.74;52362.50;5026836;28;24866;-65
2022/01/28 13:04:35;;;;;;;169.90;75.80;;;;;;;-144.99;32.83;52370.63;5030894;28;20208;-61
2022/01/28 13:09:42;;;;;;;155.47;75.47;;;;;;;-144.99;31.62;52325.81;5028274;28;20244;-62
2022/01/28 13:12:22;;;;;;;155.27;74.93;;;;;;;-144.99;31.85;52297.25;5026199;28;20232;-61
2022/01/28 13:14:48;;;;;;;140.80;73.53;;;;;;;-144.99;32.06;52378.78;5028995;28;20658;-69
2022/01/28 13:17:20;;;;;;;114.27;66.57;;;;;;;-144.99;32.68;52470.50;5030790;28;20229;-62
2022/01/28 13:19:53;;;;;;;;;;;;;;;-144.99;33.68;52464.41;5032287;28;20311;-62
2022/01/28 13:22:23;;;;;;;201.18;83.72;;;;;;;-144.99;35.32;52594.84;5030265;28;24512;-60
2022/01/28 13:24:51;;;;;;;153.63;74.47;;;;;;;-144.99;36.64;52590.78;5031796;28;20218;-61
2022/01/28 13:27:20;;;;;;;133.37;69.53;;;;;;;-144.99;37.63;52607.09;5031816;28;20281;-62
2022/01/28 13:29:51;;;;;;;99.43;61.50;;;;;;;-144.99;38.95;52623.38;5031092;28;21242;-61
2022/01/28 13:32:23;;;;;;;94.07;59.30;;;;;;;-144.99;40.54;52651.94;5031294;28;20620;-61
2022/01/28 13:34:50;;;;;;;;;;;;;;;-144.99;42.19;52668.22;5031306;28;20217;-61
2022/01/28 13:37:37;;;;;;;160.98;75.70;;;;;;;-144.99;42.37;52623.38;5030633;28;24511;-60
2022/01/28 13:40:05;;;;;;;144.27;72.10;;;;;;;-144.99;43.36;52635.63;5031596;28;20212;-59
2022/01/28 13:42:33;;;;;;;129.30;67.70;;;;;;;-144.99;43.50;52656.00;5031458;28;21231;-60
2022/01/28 13:45:03;;;;;;;;;;;;;;;-144.99;43.93;52625.44;5031127;28;20231;-59
2022/01/28 13:47:48;;;;;;;96.17;59.93;;;;;;;-144.99;44.48;52692.69;5028895;28;19925;-60
2022/01/28 13:50:24;;;;;;;115.45;63.58;;;;;;;-144.99;45.58;52647.84;5023275;28;20301;-60
2022/01/28 13:52:54;;;;;;;113.50;62.93;;;;;;;-144.99;46.57;52704.94;5030715;28;20617;-58
2022/01/28 13:55:35;;;;;;;;;;;;;;;-144.99;47.47;52639.69;5030797;28;20763;-59
2022/01/28 13:58:03;;;;;;;;;;;;;;;-144.99;48.44;52647.84;5029092;28;20371;-58